NCAR-RAP Real-Time Weather Data

Output produced by METARs form (08 May 2021  01:34 UTC)
found at http://weather.rap.ucar.edu/surface/
 
KCKV 080052Z AUTO 22006KT 10SM CLR 17/04 A3001 RMK AO2 SLP161 T01670039
KCKV 072352Z AUTO 24006KT 10SM CLR 18/04 A3003 RMK AO2 SLP166 T01830039 10206 20183 56016
KCKV 072252Z AUTO 25008KT 10SM CLR 20/03 A3004 RMK AO2 SLP170 T02000033
KCKV 072152Z AUTO 28010KT 10SM CLR 20/04 A3006 RMK AO2 SLP177 T02000039
KCKV 072052Z AUTO 29010KT 10SM FEW080 21/04 A3007 RMK AO2 SLP182 T02060044 58020
KCKV 071952Z AUTO 26009G22KT 10SM CLR 20/04 A3010 RMK AO2 SLP190 T02000039
KCKV 071852Z AUTO 32007G17KT 280V360 10SM CLR 19/06 A3012 RMK AO2 SLP197 T01940056
KCKV 071752Z AUTO 32013G19KT 10SM CLR 19/ A3013 RMK AO2 SLP202 T0189 10194 20078 58008 $
KCKV 071652Z AUTO 30013KT 10SM CLR 18/ A3015 RMK AO2 SLP209 T0183 $
KCKV 071552Z AUTO 30012G21KT 10SM CLR 17/ A3016 RMK AO2 SLP211 T0172 $
KCKV 071452Z AUTO 29010KT 10SM CLR 15/ A3016 RMK AO2 SLP210 T0150 50004 $
KCKV 071352Z AUTO 27007KT 10SM CLR 13/ A3017 RMK AO2 SLP215 T0128 $
KCKV 071252Z AUTO 28005KT 10SM CLR 11/ A3016 RMK AO2 SLP212 T0106 $
KCKV 071152Z AUTO 27006KT 10SM CLR 08/ A3014 RMK AO2 SLP207 70047 T0078 10100 20061 53016 $
KCKV 071052Z AUTO 28006KT 10SM CLR 07/ A3012 RMK AO2 SLP201 T0067 $